createdAt,value
2023-04-06T00:00:00.583Z,-1.32
2023-04-06T00:02:28.602Z,-1.46
2023-04-06T00:04:57.074Z,-1.78
2023-04-06T00:07:24.963Z,-2.08
2023-04-06T00:09:53.058Z,-1.59
2023-04-06T00:12:21.566Z,-1.81
2023-04-06T00:14:49.444Z,-1.98
2023-04-06T00:17:17.334Z,-1.60
2023-04-06T00:19:45.568Z,-1.66
2023-04-06T00:22:13.504Z,-1.85
2023-04-06T00:24:41.433Z,-1.74
2023-04-06T00:27:09.709Z,-1.91
2023-04-06T00:29:38.061Z,-1.66
2023-04-06T00:32:06.006Z,-2.22
2023-04-06T00:34:34.417Z,-1.55
2023-04-06T00:37:02.355Z,-2.21
2023-04-06T00:39:30.189Z,-2.34
2023-04-06T00:41:58.765Z,-2.08
2023-04-06T00:44:26.705Z,-2.31
2023-04-06T00:46:54.779Z,-2.62
2023-04-06T00:49:23.012Z,-2.00
2023-04-06T00:51:50.912Z,-2.29
2023-04-06T00:54:18.947Z,-2.38
2023-04-06T00:56:47.259Z,-2.19
2023-04-06T00:59:15.205Z,-2.25
2023-04-06T01:01:43.491Z,-2.58
2023-04-06T01:04:13.786Z,-2.58
2023-04-06T01:06:42.105Z,-2.13
2023-04-06T01:09:10.311Z,-1.90
2023-04-06T01:11:39.034Z,-2.02
2023-04-06T01:14:07.591Z,-2.35
2023-04-06T01:16:36.624Z,-2.95
2023-04-06T01:19:12.595Z,-3.17
2023-04-06T01:21:41.966Z,-3.36
2023-04-06T01:24:11.510Z,-3.39
2023-04-06T01:26:40.308Z,-3.31
2023-04-06T01:29:09.059Z,-3.68
2023-04-06T01:31:37.589Z,-3.45
2023-04-06T01:34:06.035Z,-3.21
2023-04-06T01:36:34.268Z,-3.52
2023-04-06T01:39:02.991Z,-3.44
2023-04-06T01:41:31.206Z,-3.25
2023-04-06T01:43:59.281Z,-3.60
2023-04-06T01:46:28.386Z,-3.45
2023-04-06T01:48:56.718Z,-3.11
2023-04-06T01:51:26.252Z,-3.49
2023-04-06T01:53:54.713Z,-3.57
2023-04-06T01:56:23.364Z,-3.72
2023-04-06T01:58:51.789Z,-3.79
2023-04-06T02:01:20.794Z,-3.70
2023-04-06T02:03:49.362Z,-3.79
2023-04-06T02:06:17.404Z,-4.02
2023-04-06T02:08:45.380Z,-3.92
2023-04-06T02:11:13.774Z,-3.82
2023-04-06T02:13:41.872Z,-3.56
2023-04-06T02:16:10.202Z,-3.69
2023-04-06T02:18:38.521Z,-3.59
2023-04-06T02:21:06.510Z,-4.00
2023-04-06T02:23:34.453Z,-3.86
2023-04-06T02:26:02.800Z,-3.53
2023-04-06T02:28:30.861Z,-3.53
2023-04-06T02:30:59.161Z,-4.04
2023-04-06T02:33:27.405Z,-3.59
2023-04-06T02:35:55.655Z,-3.79
2023-04-06T02:38:24.213Z,-3.87
2023-04-06T02:40:53.301Z,-3.87
2023-04-06T02:43:21.771Z,-3.54
2023-04-06T02:45:50.687Z,-3.84
2023-04-06T02:48:18.955Z,-3.90
2023-04-06T02:50:46.973Z,-4.15
2023-04-06T02:53:15.154Z,-4.23
2023-04-06T02:55:43.303Z,-4.06
2023-04-06T02:58:11.192Z,-4.22
2023-04-06T03:00:39.505Z,-4.07
2023-04-06T03:03:08.851Z,-4.00
2023-04-06T03:05:36.921Z,-4.13
2023-04-06T03:08:05.820Z,-4.03
2023-04-06T03:10:35.268Z,-4.11
2023-04-06T03:13:03.190Z,-4.28
2023-04-06T03:15:31.506Z,-4.14
2023-04-06T03:18:00.720Z,-3.67
2023-04-06T03:20:30.494Z,-3.43
2023-04-06T03:22:59.239Z,-3.52
2023-04-06T03:25:28.036Z,-3.80
2023-04-06T03:27:59.943Z,-2.99
2023-04-06T03:30:28.185Z,-3.21
2023-04-06T03:32:57.130Z,-3.79
2023-04-06T03:35:25.940Z,-4.37
2023-04-06T03:37:54.287Z,-4.62
2023-04-06T03:40:22.250Z,-4.29
2023-04-06T03:42:50.462Z,-4.18
2023-04-06T03:45:19.009Z,-3.95
2023-04-06T03:47:47.468Z,-4.30
2023-04-06T03:50:16.084Z,-4.24
2023-04-06T03:52:45.309Z,-4.24
2023-04-06T03:55:13.379Z,-4.20
2023-04-06T03:57:41.635Z,-4.14
2023-04-06T04:00:10.645Z,-4.27
2023-04-06T04:02:40.824Z,-3.94
2023-04-06T04:05:09.543Z,-4.20
2023-04-06T04:07:38.223Z,-4.30
2023-04-06T04:10:06.974Z,-4.06
2023-04-06T04:12:35.227Z,-3.70
2023-04-06T04:15:04.279Z,-4.01
2023-04-06T04:17:32.309Z,-4.24
2023-04-06T04:20:00.618Z,-4.19
2023-04-06T04:22:31.243Z,-4.18
2023-04-06T04:24:59.186Z,-4.19
2023-04-06T04:27:27.979Z,-3.91
2023-04-06T04:29:56.042Z,-3.84
2023-04-06T04:32:24.230Z,-3.59
2023-04-06T04:34:53.982Z,-3.33
2023-04-06T04:37:22.951Z,-3.31
2023-04-06T04:39:51.385Z,-3.21
2023-04-06T04:42:19.717Z,-3.22
2023-04-06T04:44:47.886Z,-2.79
2023-04-06T04:47:17.581Z,-2.75
2023-04-06T04:49:46.529Z,-2.63
2023-04-06T04:52:16.063Z,-2.50
2023-04-06T04:54:45.394Z,-2.44
2023-04-06T04:57:15.616Z,-2.13
2023-04-06T04:59:44.727Z,-1.74
2023-04-06T05:02:13.733Z,-1.58
2023-04-06T05:04:42.243Z,-1.21
2023-04-06T05:07:11.661Z,-0.53
2023-04-06T05:09:40.260Z,-0.61
2023-04-06T05:12:08.652Z,-0.85
2023-04-06T05:14:37.066Z,-0.65
2023-04-06T05:17:05.940Z,-0.45
2023-04-06T05:19:33.843Z,0.08
2023-04-06T05:22:02.063Z,0.21
2023-04-06T05:24:32.930Z,0.98
2023-04-06T05:27:01.429Z,0.10
2023-04-06T05:29:30.230Z,0.57
2023-04-06T05:31:58.612Z,1.07
2023-04-06T05:34:27.000Z,1.08
2023-04-06T05:36:55.696Z,1.61
2023-04-06T05:39:24.611Z,1.30
2023-04-06T05:41:52.779Z,1.39
2023-04-06T05:44:21.438Z,1.25
2023-04-06T05:46:50.867Z,1.19
2023-04-06T05:49:18.789Z,0.99
2023-04-06T05:51:46.664Z,1.46
2023-04-06T05:54:15.372Z,2.00
2023-04-06T05:56:43.674Z,1.10
2023-04-06T05:59:12.369Z,1.22
2023-04-06T06:01:41.494Z,1.94
2023-04-06T06:04:11.148Z,2.14
2023-04-06T06:06:39.533Z,2.03
2023-04-06T06:09:07.975Z,2.02
2023-04-06T06:11:38.502Z,2.43
2023-04-06T06:14:07.009Z,2.44
2023-04-06T06:16:35.533Z,2.85
2023-04-06T06:19:04.036Z,2.64
2023-04-06T06:21:33.245Z,2.96
2023-04-06T06:24:01.365Z,3.31
2023-04-06T06:26:30.244Z,3.26
2023-04-06T06:28:58.415Z,4.12
2023-04-06T06:31:27.323Z,3.96
2023-04-06T06:33:55.741Z,4.81
2023-04-06T06:36:23.860Z,4.84
2023-04-06T06:38:51.836Z,4.54
2023-04-06T06:41:20.593Z,4.67
2023-04-06T06:43:48.895Z,4.53
2023-04-06T06:46:16.864Z,4.53
2023-04-06T06:48:45.167Z,5.28
2023-04-06T06:51:13.344Z,4.14
2023-04-06T06:53:41.659Z,4.92
2023-04-06T06:56:10.141Z,5.88
2023-04-06T06:58:38.234Z,5.65
2023-04-06T07:01:06.531Z,4.93
2023-04-06T07:03:35.538Z,5.94
2023-04-06T07:06:03.496Z,6.29
2023-04-06T07:08:31.450Z,6.80
2023-04-06T07:10:59.696Z,6.65
2023-04-06T07:13:28.766Z,6.17
2023-04-06T07:15:56.893Z,5.58
2023-04-06T07:18:25.332Z,5.97
2023-04-06T07:20:53.368Z,5.96
2023-04-06T07:23:21.498Z,6.55
2023-04-06T07:25:52.198Z,6.35
2023-04-06T07:28:20.192Z,6.70
2023-04-06T07:30:48.705Z,6.36
2023-04-06T07:33:17.228Z,7.24
2023-04-06T07:35:45.242Z,7.30
2023-04-06T07:38:17.405Z,7.11
2023-04-06T07:40:45.955Z,7.70
2023-04-06T07:43:14.733Z,7.81
2023-04-06T07:45:43.268Z,6.43
2023-04-06T07:48:12.124Z,6.71
2023-04-06T07:50:41.503Z,7.10
2023-04-06T07:53:10.303Z,7.27
2023-04-06T07:55:40.671Z,7.12
2023-04-06T07:58:12.244Z,7.22
2023-04-06T08:00:42.465Z,7.21
2023-04-06T08:03:11.038Z,7.22
2023-04-06T08:05:39.096Z,7.60
2023-04-06T08:08:07.101Z,7.54
2023-04-06T08:10:35.775Z,7.27
2023-04-06T08:13:03.732Z,7.66
2023-04-06T08:15:33.540Z,7.45
2023-04-06T08:18:02.052Z,6.95
2023-04-06T08:20:29.944Z,8.03
2023-04-06T08:22:57.813Z,7.56
2023-04-06T08:25:26.428Z,8.19
2023-04-06T08:27:54.421Z,6.96
2023-04-06T08:30:22.387Z,8.07
2023-04-06T08:32:51.190Z,7.91
2023-04-06T08:35:20.551Z,8.41
2023-04-06T08:37:48.479Z,7.96
2023-04-06T08:40:16.995Z,8.68
2023-04-06T08:42:53.547Z,8.65
2023-04-06T08:45:22.596Z,8.85
2023-04-06T08:47:54.306Z,8.66
2023-04-06T08:50:23.040Z,9.06
2023-04-06T08:52:51.188Z,9.15
2023-04-06T08:55:19.320Z,8.52
2023-04-06T08:57:49.499Z,8.42
2023-04-06T09:00:19.201Z,8.81
2023-04-06T09:02:47.765Z,9.34
2023-04-06T09:05:15.968Z,9.35
2023-04-06T09:07:43.985Z,9.07
2023-04-06T09:10:12.250Z,9.89
2023-04-06T09:12:40.227Z,9.72
2023-04-06T09:15:20.247Z,10.37
2023-04-06T09:17:53.569Z,10.39
2023-04-06T09:20:27.547Z,10.22
2023-04-06T09:22:57.561Z,10.57
2023-04-06T09:25:28.105Z,10.82
2023-04-06T09:28:01.569Z,10.86
2023-04-06T09:30:29.769Z,11.30
2023-04-06T09:33:00.499Z,11.09
2023-04-06T09:35:32.645Z,10.36
2023-04-06T09:38:00.994Z,10.29
2023-04-06T09:40:31.563Z,10.76
2023-04-06T09:43:00.644Z,10.74
2023-04-06T09:45:31.997Z,10.92
2023-04-06T09:48:02.832Z,9.89
2023-04-06T09:50:31.927Z,9.49
2023-04-06T09:53:00.852Z,9.70
2023-04-06T09:55:41.769Z,9.76
2023-04-06T09:58:20.499Z,9.61
2023-04-06T10:01:02.156Z,9.54
2023-04-06T10:03:51.700Z,9.65
2023-04-06T10:06:27.554Z,10.17
2023-04-06T10:08:56.847Z,9.98
2023-04-06T10:11:24.856Z,10.44
2023-04-06T10:13:52.852Z,10.75
2023-04-06T10:16:21.221Z,10.86
2023-04-06T10:18:53.775Z,11.16
2023-04-06T10:21:25.081Z,11.07
2023-04-06T10:23:55.796Z,11.60
2023-04-06T10:26:24.172Z,11.63
2023-04-06T10:28:52.256Z,12.26
2023-04-06T10:31:30.794Z,12.87
2023-04-06T10:34:03.425Z,12.87
2023-04-06T10:36:36.694Z,12.92
2023-04-06T10:39:06.258Z,12.25
2023-04-06T10:41:42.399Z,12.65
2023-04-06T10:44:18.343Z,12.61
2023-04-06T10:46:54.960Z,13.46
2023-04-06T10:49:25.245Z,13.04
2023-04-06T10:51:59.699Z,13.27
2023-04-06T10:54:28.451Z,12.53
2023-04-06T10:56:57.758Z,13.07
2023-04-06T10:59:26.632Z,12.89
2023-04-06T11:01:57.199Z,13.53
2023-04-06T11:04:26.551Z,13.78
2023-04-06T11:06:56.202Z,13.80
2023-04-06T11:09:28.071Z,14.29
2023-04-06T11:11:57.321Z,13.46
2023-04-06T11:14:25.531Z,13.59
2023-04-06T11:16:53.625Z,13.17
2023-04-06T11:19:21.948Z,13.46
2023-04-06T11:21:51.285Z,13.05
2023-04-06T11:24:23.323Z,12.64
2023-04-06T11:26:53.846Z,12.36
2023-04-06T11:29:30.702Z,12.65
2023-04-06T11:32:03.761Z,12.14
2023-04-06T11:34:34.101Z,13.07
2023-04-06T11:37:07.076Z,12.38
2023-04-06T11:39:41.592Z,12.39
2023-04-06T11:42:10.685Z,12.39
2023-04-06T11:44:50.493Z,11.64
2023-04-06T11:47:18.870Z,11.59
2023-04-06T11:49:46.805Z,11.70
2023-04-06T11:52:23.690Z,11.28
2023-04-06T11:54:53.736Z,11.19
2023-04-06T11:57:26.799Z,11.51
2023-04-06T11:59:55.140Z,11.71
2023-04-06T12:02:23.507Z,10.90
2023-04-06T12:04:52.074Z,10.66
2023-04-06T12:07:20.160Z,10.89
2023-04-06T12:09:48.104Z,11.13
2023-04-06T12:12:16.458Z,11.06
2023-04-06T12:14:44.538Z,11.05
2023-04-06T12:17:12.526Z,10.91
2023-04-06T12:19:41.796Z,10.60
2023-04-06T12:22:13.678Z,10.34
2023-04-06T12:24:41.988Z,10.92
2023-04-06T12:27:11.687Z,10.45
2023-04-06T12:29:39.837Z,10.25
2023-04-06T12:32:08.226Z,10.44
2023-04-06T12:34:36.345Z,10.57
2023-04-06T12:37:04.418Z,10.07
2023-04-06T12:39:32.872Z,10.74
2023-04-06T12:42:00.839Z,10.23
2023-04-06T12:44:30.851Z,9.99
2023-04-06T12:46:59.325Z,9.83
2023-04-06T12:49:27.295Z,9.30
2023-04-06T12:51:55.376Z,9.80
2023-04-06T12:54:23.711Z,10.14
2023-04-06T12:56:51.790Z,10.09
2023-04-06T12:59:19.794Z,10.46
2023-04-06T13:01:48.309Z,10.43
2023-04-06T13:04:16.455Z,10.64
2023-04-06T13:06:44.447Z,10.80
2023-04-06T13:09:15.804Z,11.14
2023-04-06T13:11:43.642Z,10.53
2023-04-06T13:14:11.496Z,10.38
2023-04-06T13:16:39.813Z,10.29
2023-04-06T13:19:07.775Z,9.89
2023-04-06T13:21:39.790Z,10.11
2023-04-06T13:24:08.066Z,9.92
2023-04-06T13:26:36.508Z,10.33
2023-04-06T13:29:06.505Z,9.65
2023-04-06T13:31:34.790Z,9.86
2023-04-06T13:34:04.938Z,9.67
2023-04-06T13:36:33.399Z,9.31
2023-04-06T13:39:01.674Z,9.98
2023-04-06T13:41:32.922Z,10.42
2023-04-06T13:44:01.398Z,10.26
2023-04-06T13:46:29.339Z,9.81
2023-04-06T13:48:57.284Z,9.24
2023-04-06T13:51:25.558Z,9.33
2023-04-06T13:53:56.836Z,9.62
2023-04-06T13:56:24.684Z,9.99
2023-04-06T13:58:56.920Z,9.66
2023-04-06T14:01:25.108Z,9.47
2023-04-06T14:03:53.798Z,9.06
2023-04-06T14:06:31.032Z,9.30
2023-04-06T14:09:00.722Z,8.99
2023-04-06T14:11:29.374Z,8.57
2023-04-06T14:16:46.342Z,8.64
2023-04-06T14:19:18.797Z,8.25
2023-04-06T14:21:47.114Z,7.70
2023-04-06T14:24:15.235Z,8.07
2023-04-06T14:26:44.020Z,8.18
2023-04-06T14:29:12.342Z,8.46
2023-04-06T14:31:40.334Z,8.73
2023-04-06T14:34:08.344Z,8.80
2023-04-06T14:36:39.843Z,8.22
2023-04-06T14:39:08.237Z,8.27
2023-04-06T14:41:37.039Z,8.43
2023-04-06T14:44:06.036Z,8.37
2023-04-06T14:46:34.681Z,8.26
2023-04-06T14:49:03.151Z,8.16
2023-04-06T14:51:31.710Z,8.24
2023-04-06T14:54:04.817Z,8.37
2023-04-06T14:56:33.329Z,8.37
2023-04-06T14:59:02.848Z,8.87
2023-04-06T15:01:34.915Z,8.53
2023-04-06T15:04:04.999Z,8.59
2023-04-06T15:06:35.163Z,8.56
2023-04-06T15:09:04.064Z,8.25
2023-04-06T15:11:35.816Z,8.22
2023-04-06T15:14:04.048Z,7.90
2023-04-06T15:16:33.836Z,7.40
2023-04-06T15:19:02.696Z,6.95
2023-04-06T15:21:32.310Z,7.43
2023-04-06T15:24:00.425Z,7.44
2023-04-06T15:26:28.398Z,7.78
2023-04-06T15:28:56.745Z,7.44
2023-04-06T15:31:36.544Z,8.00
2023-04-06T15:34:09.399Z,7.64
2023-04-06T15:36:37.614Z,7.44
2023-04-06T15:39:10.179Z,7.30
2023-04-06T15:41:38.716Z,7.34
2023-04-06T15:44:07.032Z,7.58
2023-04-06T15:46:34.959Z,7.91
2023-04-06T15:49:03.789Z,8.24
2023-04-06T15:51:31.917Z,8.10
2023-04-06T15:53:59.891Z,8.17
2023-04-06T15:56:28.156Z,7.60
2023-04-06T15:58:56.180Z,7.42
2023-04-06T16:01:24.124Z,7.51
2023-04-06T16:03:53.985Z,7.34
2023-04-06T16:06:23.482Z,7.27
2023-04-06T16:08:51.548Z,7.18
2023-04-06T16:11:20.970Z,6.87
2023-04-06T16:13:55.296Z,6.63
2023-04-06T16:16:24.578Z,6.96
2023-04-06T16:18:52.488Z,6.35
2023-04-06T16:21:20.561Z,6.95
2023-04-06T16:23:48.846Z,6.54
2023-04-06T16:26:20.468Z,6.52
2023-04-06T16:28:49.680Z,6.17
2023-04-06T16:31:19.506Z,5.88
2023-04-06T16:33:48.636Z,6.14
2023-04-06T16:36:32.060Z,5.69
2023-04-06T16:39:02.617Z,5.26
2023-04-06T16:41:32.354Z,5.24
2023-04-06T16:44:00.785Z,5.45
2023-04-06T16:46:36.250Z,5.19
2023-04-06T16:49:07.005Z,5.11
2023-04-06T16:51:35.360Z,4.82
2023-04-06T16:54:04.053Z,4.89
2023-04-06T16:56:32.581Z,4.56
2023-04-06T16:59:00.654Z,4.69
2023-04-06T17:01:29.523Z,4.36
2023-04-06T17:03:58.036Z,4.33
2023-04-06T17:06:27.910Z,4.21
2023-04-06T17:08:55.968Z,4.58
2023-04-06T17:11:28.656Z,4.52
2023-04-06T17:14:03.938Z,4.51
2023-04-06T17:16:32.699Z,4.05
2023-04-06T17:19:01.102Z,3.88
2023-04-06T17:21:28.977Z,3.69
2023-04-06T17:23:57.208Z,4.04
2023-04-06T17:26:25.113Z,4.11
2023-04-06T17:28:53.034Z,3.40
2023-04-06T17:31:22.582Z,3.82
2023-04-06T17:33:50.634Z,3.74
2023-04-06T17:36:21.359Z,3.38
2023-04-06T17:38:50.280Z,3.17
2023-04-06T17:41:18.184Z,3.27
2023-04-06T17:43:46.651Z,3.38
2023-04-06T17:46:15.654Z,2.91
2023-04-06T17:48:44.213Z,3.04
2023-04-06T17:51:14.534Z,3.34
2023-04-06T17:53:42.754Z,3.16
2023-04-06T17:56:10.602Z,3.14
2023-04-06T17:58:38.553Z,3.34
2023-04-06T18:01:08.785Z,3.55
2023-04-06T18:03:38.505Z,3.32
2023-04-06T18:06:17.085Z,3.78
2023-04-06T18:08:45.715Z,3.05
2023-04-06T18:11:21.964Z,3.22
2023-04-06T18:13:50.665Z,3.34
2023-04-06T18:16:21.531Z,3.08
2023-04-06T18:18:49.732Z,3.29
2023-04-06T18:21:18.006Z,3.54
2023-04-06T18:23:46.764Z,3.27
2023-04-06T18:26:18.138Z,3.69
2023-04-06T18:28:46.932Z,3.86
2023-04-06T18:31:14.924Z,3.55
2023-04-06T18:33:43.998Z,3.36
2023-04-06T18:36:12.321Z,3.06
2023-04-06T18:38:44.802Z,2.99
2023-04-06T18:41:13.130Z,3.45
2023-04-06T18:43:41.659Z,3.49
2023-04-06T18:46:13.889Z,3.28
2023-04-06T18:48:42.883Z,3.57
2023-04-06T18:51:10.868Z,3.38
2023-04-06T18:53:39.949Z,3.36
2023-04-06T18:56:19.535Z,3.30
2023-04-06T18:58:49.374Z,3.15
2023-04-06T19:01:22.315Z,3.56
2023-04-06T19:03:51.327Z,3.57
2023-04-06T19:06:19.648Z,3.54
2023-04-06T19:08:47.949Z,3.46
2023-04-06T19:11:16.930Z,3.82
2023-04-06T19:13:50.321Z,3.86
2023-04-06T19:16:18.801Z,3.42
2023-04-06T19:18:47.121Z,3.60
2023-04-06T19:21:16.584Z,3.38
2023-04-06T19:23:49.189Z,3.11
2023-04-06T19:26:19.533Z,3.66
2023-04-06T19:28:47.785Z,3.42
2023-04-06T19:31:17.409Z,3.49
2023-04-06T19:33:47.132Z,3.72
2023-04-06T19:36:15.754Z,3.65
2023-04-06T19:38:43.929Z,3.15
2023-04-06T19:41:12.226Z,3.94
2023-04-06T19:43:40.125Z,3.77
2023-04-06T19:46:09.439Z,3.63
2023-04-06T19:48:37.746Z,3.63
2023-04-06T19:51:05.865Z,3.50
2023-04-06T19:53:33.778Z,3.53
2023-04-06T19:56:02.000Z,3.31
2023-04-06T19:58:29.937Z,3.46
2023-04-06T20:00:57.914Z,3.05
2023-04-06T20:03:26.316Z,3.53
2023-04-06T20:05:54.370Z,3.89
2023-04-06T20:08:22.825Z,3.58
2023-04-06T20:10:52.335Z,3.65
2023-04-06T20:13:21.100Z,3.57
2023-04-06T20:15:49.481Z,3.87
2023-04-06T20:18:17.672Z,3.97
2023-04-06T20:20:45.692Z,3.89
2023-04-06T20:23:13.633Z,3.43
2023-04-06T20:25:42.417Z,3.68
2023-04-06T20:28:10.877Z,3.64
2023-04-06T20:30:39.418Z,3.04
2023-04-06T20:33:07.887Z,3.16
2023-04-06T20:35:36.015Z,3.08
2023-04-06T20:38:03.881Z,3.15
2023-04-06T20:40:32.277Z,3.28
2023-04-06T20:43:00.975Z,3.40
2023-04-06T20:45:29.924Z,3.31
2023-04-06T20:47:58.646Z,3.33
2023-04-06T20:50:26.726Z,3.42
2023-04-06T20:52:54.702Z,3.27
2023-04-06T20:55:22.936Z,3.12
2023-04-06T20:57:51.022Z,3.03
2023-04-06T21:00:19.142Z,3.51
2023-04-06T21:02:47.641Z,3.15
2023-04-06T21:05:15.951Z,3.16
2023-04-06T21:07:43.856Z,3.01
2023-04-06T21:10:12.114Z,2.85
2023-04-06T21:12:40.499Z,2.90
2023-04-06T21:15:08.898Z,2.81
2023-04-06T21:17:37.075Z,3.21
2023-04-06T21:20:05.561Z,3.00
2023-04-06T21:22:33.398Z,3.10
2023-04-06T21:25:01.756Z,2.94
2023-04-06T21:27:30.171Z,2.62
2023-04-06T21:29:58.063Z,3.08
2023-04-06T21:32:26.381Z,3.20
2023-04-06T21:34:54.251Z,3.18
2023-04-06T21:37:22.110Z,3.10
2023-04-06T21:39:50.362Z,3.18
2023-04-06T21:42:18.262Z,3.15
2023-04-06T21:44:46.144Z,3.04
2023-04-06T21:47:14.363Z,3.17
2023-04-06T21:49:42.271Z,3.37
2023-04-06T21:52:10.201Z,3.02
2023-04-06T21:54:38.920Z,3.25
2023-04-06T21:57:06.992Z,3.11
2023-04-06T21:59:34.850Z,3.54
2023-04-06T22:02:03.154Z,3.27
2023-04-06T22:04:32.047Z,3.17
2023-04-06T22:07:00.271Z,3.26
2023-04-06T22:09:28.179Z,3.17
2023-04-06T22:11:56.435Z,3.23
2023-04-06T22:14:24.388Z,2.98
2023-04-06T22:16:52.335Z,3.09
2023-04-06T22:19:20.663Z,3.20
2023-04-06T22:21:48.972Z,2.99
2023-04-06T22:24:17.139Z,3.42
2023-04-06T22:26:45.744Z,3.33
2023-04-06T22:29:13.695Z,3.63
2023-04-06T22:31:41.618Z,3.56
2023-04-06T22:34:09.930Z,3.45
2023-04-06T22:36:37.884Z,3.33
2023-04-06T22:39:05.985Z,3.52
2023-04-06T22:41:34.263Z,3.43
2023-04-06T22:44:02.344Z,3.70
2023-04-06T22:46:30.232Z,3.67
2023-04-06T22:48:58.434Z,2.91
2023-04-06T22:51:28.282Z,3.32
2023-04-06T22:53:56.152Z,3.08
2023-04-06T22:56:24.423Z,3.41
2023-04-06T22:58:52.406Z,3.61
2023-04-06T23:01:20.532Z,3.17
2023-04-06T23:03:48.885Z,3.20
2023-04-06T23:06:17.181Z,3.65
2023-04-06T23:08:45.019Z,3.51
2023-04-06T23:11:13.670Z,3.93
2023-04-06T23:13:41.562Z,3.83
2023-04-06T23:16:09.496Z,3.29
2023-04-06T23:18:37.865Z,3.50
2023-04-06T23:21:08.628Z,3.28
2023-04-06T23:23:36.715Z,3.36
2023-04-06T23:26:05.190Z,3.41
2023-04-06T23:28:33.039Z,3.48
2023-04-06T23:31:00.883Z,3.37
2023-04-06T23:33:29.381Z,3.45
2023-04-06T23:35:57.292Z,3.49
2023-04-06T23:38:25.204Z,3.64
2023-04-06T23:40:53.430Z,3.43
2023-04-06T23:43:21.316Z,3.47
2023-04-06T23:45:49.165Z,3.49
2023-04-06T23:48:17.424Z,3.58
2023-04-06T23:50:45.584Z,3.51
2023-04-06T23:53:13.502Z,3.28
2023-04-06T23:55:41.731Z,3.28
2023-04-06T23:58:09.708Z,3.11
